createdAt,value
2023-04-03T00:00:33.388Z,5.3
2023-04-03T00:01:50.345Z,5.4
2023-04-03T00:03:07.304Z,5.4
2023-04-03T00:04:24.350Z,5.3
2023-04-03T00:05:41.272Z,5.3
2023-04-03T00:06:58.304Z,5.4
2023-04-03T00:08:15.286Z,5.4
2023-04-03T00:09:32.331Z,5.3
2023-04-03T00:10:50.329Z,5.2
2023-04-03T00:12:07.295Z,5.1
2023-04-03T00:13:24.297Z,5
2023-04-03T00:14:41.315Z,4.9
2023-04-03T00:15:58.492Z,5
2023-04-03T00:17:15.295Z,4.9
2023-04-03T00:18:32.301Z,4.9
2023-04-03T00:19:49.326Z,5
2023-04-03T00:21:06.313Z,5
2023-04-03T00:22:23.306Z,5.1
2023-04-03T00:23:40.325Z,5.1
2023-04-03T00:24:57.327Z,4.9
2023-04-03T00:26:14.335Z,4.7
2023-04-03T00:27:31.306Z,4.6
2023-04-03T00:28:48.336Z,4.4
2023-04-03T00:30:05.321Z,4.3
2023-04-03T00:31:22.371Z,4.3
2023-04-03T00:32:39.350Z,4.3
2023-04-03T00:33:56.345Z,4.2
2023-04-03T00:35:13.328Z,4.3
2023-04-03T00:36:30.470Z,4.3
2023-04-03T00:37:47.321Z,4.2
2023-04-03T00:39:04.342Z,4.2
2023-04-03T00:40:21.332Z,4.2
2023-04-03T00:41:38.349Z,4.4
2023-04-03T00:42:55.320Z,4.7
2023-04-03T00:44:12.319Z,4.8
2023-04-03T00:45:29.365Z,4.8
2023-04-03T00:46:46.425Z,4.8
2023-04-03T00:48:03.404Z,4.8
2023-04-03T00:49:20.819Z,4.8
2023-04-03T00:50:37.679Z,4.8
2023-04-03T00:51:54.335Z,4.9
2023-04-03T00:53:14.544Z,5
2023-04-03T00:54:31.368Z,5.1
2023-04-03T00:55:48.416Z,5.1
2023-04-03T00:57:05.395Z,5.2
2023-04-03T00:58:22.353Z,5.2
2023-04-03T00:59:39.372Z,5.2
2023-04-03T01:00:56.347Z,5.2
2023-04-03T01:02:13.396Z,5.2
2023-04-03T01:03:30.361Z,5.3
2023-04-03T01:04:47.421Z,5.2
2023-04-03T01:06:04.349Z,5.1
2023-04-03T01:07:21.364Z,4.9
2023-04-03T01:08:38.365Z,4.9
2023-04-03T01:09:55.405Z,5
2023-04-03T01:11:12.373Z,5
2023-04-03T01:12:29.371Z,4.9
2023-04-03T01:13:46.715Z,4.8
2023-04-03T01:15:03.416Z,4.8
2023-04-03T01:16:20.401Z,4.8
2023-04-03T01:17:37.420Z,4.9
2023-04-03T01:18:54.368Z,5
2023-04-03T01:20:11.408Z,4.9
2023-04-03T01:21:28.445Z,4.7
2023-04-03T01:22:45.390Z,4.6
2023-04-03T01:24:02.408Z,4.5
2023-04-03T01:25:19.530Z,4.4
2023-04-03T01:26:36.378Z,4.5
2023-04-03T01:27:53.387Z,4.4
2023-04-03T01:29:10.381Z,4.4
2023-04-03T01:30:27.468Z,4.2
2023-04-03T01:31:44.433Z,4.1
2023-04-03T01:33:01.458Z,4.1
2023-04-03T01:34:18.408Z,4.2
2023-04-03T01:35:35.468Z,4.2
2023-04-03T01:36:52.409Z,4
2023-04-03T01:38:09.400Z,3.9
2023-04-03T01:39:26.413Z,3.9
2023-04-03T01:40:43.435Z,3.9
2023-04-03T01:42:00.412Z,3.7
2023-04-03T01:43:17.479Z,3.5
2023-04-03T01:44:34.413Z,3.4
2023-04-03T01:45:51.447Z,3.5
2023-04-03T01:47:08.441Z,3.6
2023-04-03T01:48:25.443Z,3.4
2023-04-03T01:49:42.429Z,3.2
2023-04-03T01:50:59.451Z,3.2
2023-04-03T01:52:16.456Z,2.9
2023-04-03T01:53:33.434Z,2.7
2023-04-03T01:54:50.423Z,2.4
2023-04-03T01:56:07.443Z,2.3
2023-04-03T01:57:24.462Z,2.3
2023-04-03T01:58:41.487Z,2.4
2023-04-03T01:59:58.422Z,2.6
2023-04-03T02:01:15.453Z,2.7
2023-04-03T02:02:32.441Z,2.8
2023-04-03T02:03:49.590Z,2.9
2023-04-03T02:05:06.433Z,2.8
2023-04-03T02:06:23.426Z,2.8
2023-04-03T02:07:40.426Z,2.8
2023-04-03T02:08:57.468Z,2.9
2023-04-03T02:10:14.494Z,3.1
2023-04-03T02:11:31.459Z,3.3
2023-04-03T02:12:48.441Z,3.4
2023-04-03T02:14:05.450Z,3.3
2023-04-03T02:15:22.498Z,3.4
2023-04-03T02:16:39.468Z,3.2
2023-04-03T02:17:56.490Z,3.1
2023-04-03T02:19:13.488Z,3.1
2023-04-03T02:20:30.474Z,3
2023-04-03T02:21:47.449Z,2.9
2023-04-03T02:23:04.514Z,2.9
2023-04-03T02:24:21.451Z,3
2023-04-03T02:25:38.792Z,3.1
2023-04-03T02:26:55.453Z,3.1
2023-04-03T02:28:12.510Z,2.8
2023-04-03T02:29:29.467Z,2.7
2023-04-03T02:30:46.507Z,2.6
2023-04-03T02:32:03.510Z,2.6
2023-04-03T02:33:20.528Z,2.6
2023-04-03T02:34:37.508Z,2.5
2023-04-03T02:35:54.492Z,2.5
2023-04-03T02:37:11.471Z,2.4
2023-04-03T02:38:28.527Z,2.4
2023-04-03T02:39:45.471Z,2.4
2023-04-03T02:41:02.480Z,2.3
2023-04-03T02:42:19.487Z,2.3
2023-04-03T02:43:36.536Z,2.1
2023-04-03T02:44:53.493Z,2.1
2023-04-03T02:46:10.617Z,2.2
2023-04-03T02:47:27.558Z,2.3
2023-04-03T02:48:44.527Z,2.4
2023-04-03T02:50:01.560Z,2.4
2023-04-03T02:51:18.519Z,2.2
2023-04-03T02:52:35.557Z,1.9
2023-04-03T02:53:52.766Z,1.3
2023-04-03T02:55:09.495Z,1.2
2023-04-03T02:56:26.498Z,1.1
2023-04-03T02:57:43.736Z,1.1
2023-04-03T02:59:00.502Z,1.2
2023-04-03T03:00:17.497Z,1.3
2023-04-03T03:01:34.554Z,1.2
2023-04-03T03:02:51.588Z,1.4
2023-04-03T03:04:08.510Z,1.5
2023-04-03T03:05:25.537Z,1.5
2023-04-03T03:06:43.610Z,1.6
2023-04-03T03:07:59.535Z,1.5
2023-04-03T03:09:16.514Z,1.4
2023-04-03T03:10:33.545Z,1.5
2023-04-03T03:11:50.532Z,1.6
2023-04-03T03:13:07.546Z,1.8
2023-04-03T03:14:24.517Z,1.8
2023-04-03T03:15:41.559Z,1.8
2023-04-03T03:16:58.528Z,2
2023-04-03T03:18:15.597Z,2.1
2023-04-03T03:19:33.236Z,2.1
2023-04-03T03:20:50.652Z,2.1
2023-04-03T03:22:07.645Z,1.9
2023-04-03T03:23:24.554Z,1.9
2023-04-03T03:24:41.726Z,1.9
2023-04-03T03:25:58.555Z,1.9
2023-04-03T03:27:15.549Z,1.8
2023-04-03T03:28:32.547Z,1.9
2023-04-03T03:29:49.529Z,1.9
2023-04-03T03:31:06.626Z,2.1
2023-04-03T03:32:23.575Z,2.2
2023-04-03T03:33:40.571Z,2.1
2023-04-03T03:34:57.560Z,2.2
2023-04-03T03:36:15.129Z,2.2
2023-04-03T03:37:31.569Z,2
2023-04-03T03:38:48.573Z,1.9
2023-04-03T03:40:05.868Z,1.9
2023-04-03T03:41:22.548Z,2.1
2023-04-03T03:42:39.652Z,1.8
2023-04-03T03:43:56.574Z,1.9
2023-04-03T03:45:13.591Z,1.8
2023-04-03T03:46:30.569Z,1.9
2023-04-03T03:47:47.646Z,1.7
2023-04-03T03:49:04.591Z,1.6
2023-04-03T03:50:21.641Z,1.6
2023-04-03T03:51:38.649Z,1.7
2023-04-03T03:52:55.565Z,1.7
2023-04-03T03:54:12.631Z,1.5
2023-04-03T03:55:29.560Z,1.4
2023-04-03T03:56:46.913Z,1.1
2023-04-03T03:58:03.567Z,0.9
2023-04-03T03:59:21.240Z,0.8
2023-04-03T04:00:38.584Z,0.7
2023-04-03T04:01:55.610Z,0.4
2023-04-03T04:03:12.660Z,0.4
2023-04-03T04:04:29.672Z,0.2
2023-04-03T04:05:46.575Z,0.2
2023-04-03T04:07:03.597Z,0.5
2023-04-03T04:08:20.630Z,0.5
2023-04-03T04:09:37.664Z,0.6
2023-04-03T04:10:55.109Z,0.7
2023-04-03T04:12:11.602Z,0.9
2023-04-03T04:13:28.599Z,1.1
2023-04-03T04:14:45.584Z,1.2
2023-04-03T04:16:02.619Z,1.3
2023-04-03T04:17:19.663Z,1.3
2023-04-03T04:18:36.595Z,1.1
2023-04-03T04:19:53.628Z,0.9
2023-04-03T04:21:10.660Z,1.1
2023-04-03T04:22:27.619Z,1.2
2023-04-03T04:23:44.605Z,1
2023-04-03T04:25:01.618Z,1
2023-04-03T04:26:18.628Z,0.9
2023-04-03T04:27:35.653Z,0.8
2023-04-03T04:28:52.657Z,0.8
2023-04-03T04:30:10.815Z,0.6
2023-04-03T04:31:27.673Z,0.3
2023-04-03T04:32:45.267Z,0.3
2023-04-03T04:34:02.643Z,0.7
2023-04-03T04:35:19.669Z,0.9
2023-04-03T04:36:36.655Z,0.9
2023-04-03T04:37:53.948Z,0.9
2023-04-03T04:39:10.618Z,1.2
2023-04-03T04:40:27.618Z,1.4
2023-04-03T04:41:44.714Z,1.5
2023-04-03T04:43:01.692Z,1.6
2023-04-03T04:44:18.671Z,1.6
2023-04-03T04:45:35.873Z,1.8
2023-04-03T04:46:53.194Z,1.7
2023-04-03T04:48:09.758Z,1.5
2023-04-03T04:49:26.625Z,1.5
2023-04-03T04:50:43.696Z,1.3
2023-04-03T04:52:00.633Z,1.4
2023-04-03T04:53:17.698Z,1.2
2023-04-03T04:54:34.662Z,0.8
2023-04-03T04:55:51.633Z,0.6
2023-04-03T04:57:08.652Z,0.7
2023-04-03T04:58:25.686Z,0.8
2023-04-03T04:59:42.640Z,0.9
2023-04-03T05:00:59.679Z,1
2023-04-03T05:02:16.675Z,1.3
2023-04-03T05:03:33.708Z,1.3
2023-04-03T05:04:50.686Z,1.3
2023-04-03T05:06:07.668Z,1.2
2023-04-03T05:07:24.664Z,1.2
2023-04-03T05:08:42.370Z,1.2
2023-04-03T05:09:59.847Z,1.4
2023-04-03T05:11:16.666Z,1.4
2023-04-03T05:12:33.664Z,1.5
2023-04-03T05:13:50.745Z,1.2
2023-04-03T05:15:07.671Z,0.9
2023-04-03T05:16:24.763Z,1
2023-04-03T05:17:41.712Z,0.9
2023-04-03T05:18:58.694Z,1
2023-04-03T05:20:15.736Z,1.3
2023-04-03T05:21:32.664Z,1.7
2023-04-03T05:22:49.758Z,2
2023-04-03T05:24:06.708Z,2.3
2023-04-03T05:25:23.707Z,2.6
2023-04-03T05:26:40.716Z,2.7
2023-04-03T05:27:57.715Z,2.9
2023-04-03T05:29:14.693Z,2.9
2023-04-03T05:30:31.737Z,3.2
2023-04-03T05:31:48.718Z,3.6
2023-04-03T05:33:05.706Z,4
2023-04-03T05:34:22.694Z,4.6
2023-04-03T05:35:39.981Z,5.1
2023-04-03T05:36:56.687Z,5.2
2023-04-03T05:38:13.696Z,5.3
2023-04-03T05:39:30.716Z,5.9
2023-04-03T05:40:47.781Z,6.6
2023-04-03T05:42:04.697Z,7
2023-04-03T05:43:21.738Z,7.4
2023-04-03T05:44:38.695Z,7.5
2023-04-03T05:45:55.756Z,7.8
2023-04-03T05:47:12.735Z,8.2
2023-04-03T05:48:29.742Z,8.5
2023-04-03T05:49:46.707Z,8.8
2023-04-03T05:51:03.757Z,9.1
2023-04-03T05:52:20.714Z,9.3
2023-04-03T05:53:37.729Z,9.6
2023-04-03T05:54:54.731Z,9.9
2023-04-03T05:56:11.742Z,9.7
2023-04-03T05:57:28.720Z,9.1
2023-04-03T05:58:45.719Z,8.8
2023-04-03T06:00:02.791Z,8.9
2023-04-03T06:01:19.769Z,9.1
2023-04-03T06:02:36.823Z,9.4
2023-04-03T06:03:53.866Z,9.4
2023-04-03T06:05:10.745Z,9.8
2023-04-03T06:06:27.791Z,9.8
2023-04-03T06:07:44.754Z,9
2023-04-03T06:09:03.709Z,8.8
2023-04-03T06:10:18.756Z,9.2
2023-04-03T06:11:35.761Z,9.6
2023-04-03T06:12:52.732Z,10
2023-04-03T06:14:09.778Z,9.7
2023-04-03T06:15:26.920Z,9
2023-04-03T06:16:43.822Z,8.3
2023-04-03T06:18:00.780Z,8.4
2023-04-03T06:19:17.742Z,8.2
2023-04-03T06:20:34.750Z,8.3
2023-04-03T06:21:51.780Z,8.2
2023-04-03T06:23:08.793Z,8.3
2023-04-03T06:24:25.757Z,8.4
2023-04-03T06:25:42.774Z,8.2
2023-04-03T06:26:59.782Z,8
2023-04-03T06:28:16.773Z,7.5
2023-04-03T06:29:33.762Z,7.2
2023-04-03T06:30:50.779Z,7.4
2023-04-03T06:32:07.793Z,7.4
2023-04-03T06:33:24.775Z,7.4
2023-04-03T06:34:41.783Z,7.3
2023-04-03T06:35:58.798Z,7.1
2023-04-03T06:37:15.831Z,6.8
2023-04-03T06:38:32.780Z,6.6
2023-04-03T06:39:49.785Z,6.7
2023-04-03T06:41:06.820Z,7.1
2023-04-03T06:42:23.828Z,7.6
2023-04-03T06:43:40.801Z,7.8
2023-04-03T06:44:57.773Z,8
2023-04-03T06:46:14.822Z,7.5
2023-04-03T06:47:31.896Z,7.4
2023-04-03T06:48:48.823Z,7.7
2023-04-03T06:50:05.839Z,8.1
2023-04-03T06:51:22.803Z,8.2
2023-04-03T06:52:39.828Z,8.2
2023-04-03T06:53:56.847Z,8.7
2023-04-03T06:55:13.876Z,8.8
2023-04-03T06:56:30.833Z,8.6
2023-04-03T06:57:47.805Z,8.4
2023-04-03T06:59:04.822Z,8.3
2023-04-03T07:00:21.870Z,8.3
2023-04-03T07:01:38.835Z,8.6
2023-04-03T07:02:55.833Z,8.7
2023-04-03T07:04:12.830Z,9.1
2023-04-03T07:05:30.008Z,9.4
2023-04-03T07:06:46.829Z,9.8
2023-04-03T07:08:03.826Z,9.9
2023-04-03T07:09:20.867Z,9.8
2023-04-03T07:10:37.805Z,10
2023-04-03T07:11:54.852Z,10.2
2023-04-03T07:13:11.826Z,10.9
2023-04-03T07:14:28.872Z,11.5
2023-04-03T07:15:45.859Z,11.7
2023-04-03T07:17:02.829Z,12
2023-04-03T07:18:19.828Z,12.4
2023-04-03T07:19:36.857Z,12.6
2023-04-03T07:20:53.859Z,12.8
2023-04-03T07:22:10.877Z,12.5
2023-04-03T07:23:27.945Z,11.8
2023-04-03T07:24:44.863Z,10.9
2023-04-03T07:26:02.007Z,10.1
2023-04-03T07:27:18.871Z,10.2
2023-04-03T07:28:35.862Z,9.9
2023-04-03T07:29:53.893Z,9.6
2023-04-03T07:31:09.959Z,9.4
2023-04-03T07:32:26.983Z,10
2023-04-03T07:33:44.252Z,9.9
2023-04-03T07:35:02.342Z,9.6
2023-04-03T07:36:17.918Z,9
2023-04-03T07:37:34.892Z,8.7
2023-04-03T07:38:51.848Z,8.7
2023-04-03T07:40:08.883Z,9
2023-04-03T07:41:25.897Z,9.7
2023-04-03T07:42:42.881Z,10.4
2023-04-03T07:43:59.979Z,10.1
2023-04-03T07:45:16.873Z,9.3
2023-04-03T07:46:33.863Z,8.6
2023-04-03T07:47:50.917Z,8
2023-04-03T07:49:07.900Z,7.6
2023-04-03T07:50:24.940Z,7.4
2023-04-03T07:51:42.929Z,7.2
2023-04-03T07:53:00.902Z,7.2
2023-04-03T07:54:17.877Z,6.9
2023-04-03T07:55:35.147Z,6.4
2023-04-03T07:56:51.875Z,6.3
2023-04-03T07:58:08.963Z,6.8
2023-04-03T07:59:25.908Z,7.6
2023-04-03T08:00:42.924Z,8.4
2023-04-03T08:01:59.876Z,9
2023-04-03T08:03:16.948Z,9.9
2023-04-03T08:04:34.060Z,10.6
2023-04-03T08:05:50.951Z,11.5
2023-04-03T08:07:07.898Z,11.4
2023-04-03T08:08:25.236Z,11.3
2023-04-03T08:09:42.168Z,11.4
2023-04-03T08:10:58.972Z,11.1
2023-04-03T08:12:15.910Z,10.4
2023-04-03T08:13:32.957Z,9.8
2023-04-03T08:14:49.897Z,9.5
2023-04-03T08:16:06.955Z,9.7
2023-04-03T08:17:23.902Z,10.3
2023-04-03T08:18:40.917Z,10.7
2023-04-03T08:19:57.910Z,11.3
2023-04-03T08:21:14.907Z,11.2
2023-04-03T08:22:31.920Z,10.9
2023-04-03T08:23:49.003Z,11
2023-04-03T08:25:05.926Z,11.1
2023-04-03T08:26:22.916Z,11.3
2023-04-03T08:27:39.916Z,11.4
2023-04-03T08:28:56.961Z,11.7
2023-04-03T08:30:13.950Z,12.3
2023-04-03T08:31:30.928Z,12.6
2023-04-03T08:32:47.956Z,12.5
2023-04-03T08:34:05.057Z,11.9
2023-04-03T08:35:22.004Z,11.2
2023-04-03T08:36:39.038Z,10.8
2023-04-03T08:37:56.204Z,11
2023-04-03T08:39:12.994Z,11.3
2023-04-03T08:40:29.935Z,11.9
2023-04-03T08:41:46.957Z,12.8
2023-04-03T08:43:03.924Z,13.5
2023-04-03T08:44:21.050Z,14
2023-04-03T08:45:38.322Z,14.4
2023-04-03T08:46:54.997Z,14.5
2023-04-03T08:48:11.955Z,14.5
2023-04-03T08:49:28.986Z,14.7
2023-04-03T08:50:45.942Z,15
2023-04-03T08:52:02.972Z,15
2023-04-03T08:53:19.975Z,15.1
2023-04-03T08:54:36.940Z,15.3
2023-04-03T08:55:53.955Z,15.1
2023-04-03T08:57:11.030Z,14.3
2023-04-03T08:58:28.028Z,12.9
2023-04-03T08:59:45.112Z,11.5
2023-04-03T09:01:02.057Z,10.9
2023-04-03T09:02:18.980Z,10.9
2023-04-03T09:03:36.072Z,11.3
2023-04-03T09:04:52.961Z,11.4
2023-04-03T09:06:09.984Z,11.1
2023-04-03T09:07:26.963Z,10.7
2023-04-03T09:08:44.080Z,10.2
2023-04-03T09:10:00.991Z,9.9
2023-04-03T09:11:18.044Z,9.9
2023-04-03T09:12:34.980Z,10.3
2023-04-03T09:13:52.010Z,10.6
2023-04-03T09:15:09.116Z,10.8
2023-04-03T09:16:26.040Z,10.9
2023-04-03T09:17:43.061Z,11.2
2023-04-03T09:18:59.981Z,11.1
2023-04-03T09:20:18.939Z,11.7
2023-04-03T09:21:34.006Z,12.5
2023-04-03T09:22:52.560Z,13
2023-04-03T09:24:08.103Z,13.6
2023-04-03T09:25:25.043Z,13.8
2023-04-03T09:26:41.992Z,13.6
2023-04-03T09:27:59.003Z,13.1
2023-04-03T09:29:16.054Z,12.1
2023-04-03T09:30:33.241Z,11.2
2023-04-03T09:31:50.048Z,10.7
2023-04-03T09:33:07.036Z,9.9
2023-04-03T09:34:24.617Z,9.5
2023-04-03T09:35:47.831Z,9.2
2023-04-03T09:36:58.018Z,9.1
2023-04-03T09:38:15.237Z,9.1
2023-04-03T09:39:32.062Z,8.9
2023-04-03T09:40:49.101Z,8.7
2023-04-03T09:42:06.022Z,8.3
2023-04-03T09:43:23.033Z,8.2
2023-04-03T09:44:40.065Z,8.3
2023-04-03T09:45:57.184Z,8.5
2023-04-03T09:47:14.030Z,8.6
2023-04-03T09:48:31.058Z,9
2023-04-03T09:49:48.099Z,9.5
2023-04-03T09:51:05.029Z,10.2
2023-04-03T09:52:22.054Z,11.3
2023-04-03T09:53:39.057Z,12.2
2023-04-03T09:54:56.036Z,12.2
2023-04-03T09:56:13.257Z,11.2
2023-04-03T09:57:30.062Z,10.6
2023-04-03T09:58:50.682Z,10.1
2023-04-03T10:00:04.055Z,9.7
2023-04-03T10:01:21.250Z,9.5
2023-04-03T10:02:38.099Z,9.5
2023-04-03T10:03:55.054Z,9.4
2023-04-03T10:05:12.148Z,9.1
2023-04-03T10:06:29.127Z,8.9
2023-04-03T10:07:54.546Z,8.7
2023-04-03T10:09:03.119Z,8.7
2023-04-03T10:10:20.062Z,8.9
2023-04-03T10:11:37.159Z,9.5
2023-04-03T10:12:54.132Z,9.9
2023-04-03T10:14:11.068Z,10.1
2023-04-03T10:15:28.067Z,10
2023-04-03T10:16:45.251Z,9.7
2023-04-03T10:18:08.914Z,9.4
2023-04-03T10:19:19.093Z,9
2023-04-03T10:20:36.097Z,8.6
2023-04-03T10:21:53.087Z,8.5
2023-04-03T10:23:10.077Z,8.6
2023-04-03T10:24:27.345Z,8.5
2023-04-03T10:25:44.069Z,8.5
2023-04-03T10:27:01.072Z,8.8
2023-04-03T10:28:18.616Z,9.2
2023-04-03T10:29:35.099Z,10
2023-04-03T10:30:52.109Z,11
2023-04-03T10:32:09.225Z,12.1
2023-04-03T10:33:26.098Z,12.9
2023-04-03T10:34:43.525Z,12.7
2023-04-03T10:36:00.151Z,11.7
2023-04-03T10:37:17.122Z,10.8
2023-04-03T10:38:34.433Z,10.3
2023-04-03T10:39:51.137Z,9.9
2023-04-03T10:41:08.102Z,9.6
2023-04-03T10:42:25.117Z,9.5
2023-04-03T10:43:42.096Z,9.6
2023-04-03T10:44:59.184Z,9.8
2023-04-03T10:46:16.146Z,10.1
2023-04-03T10:47:34.083Z,10.6
2023-04-03T10:48:50.110Z,11.2
2023-04-03T10:50:07.140Z,11.8
2023-04-03T10:51:24.122Z,12.3
2023-04-03T10:52:41.349Z,12.8
2023-04-03T10:53:58.105Z,13.1
2023-04-03T10:55:15.128Z,13
2023-04-03T10:56:32.206Z,12.8
2023-04-03T10:57:49.141Z,12.8
2023-04-03T10:59:06.135Z,12.9
2023-04-03T11:00:23.145Z,12.5
2023-04-03T11:01:40.523Z,12.7
2023-04-03T11:02:57.342Z,12.9
2023-04-03T11:04:14.137Z,13.3
2023-04-03T11:05:31.124Z,13.6
2023-04-03T11:06:48.316Z,13.9
2023-04-03T11:08:05.165Z,14.3
2023-04-03T11:09:22.206Z,14.2
2023-04-03T11:10:39.155Z,13.7
2023-04-03T11:11:56.180Z,13.3
2023-04-03T11:13:13.579Z,12.8
2023-04-03T11:14:30.143Z,12.7
2023-04-03T11:15:47.193Z,12.6
2023-04-03T11:17:04.172Z,11.8
2023-04-03T11:18:21.284Z,10.9
2023-04-03T11:19:38.402Z,10.2
2023-04-03T11:20:55.179Z,10.5
2023-04-03T11:22:12.192Z,11.2
2023-04-03T11:23:32.874Z,11.9
2023-04-03T11:24:46.167Z,11.7
2023-04-03T11:26:03.219Z,11.2
2023-04-03T11:27:20.173Z,10.7
2023-04-03T11:28:37.186Z,10.6
2023-04-03T11:29:54.169Z,10.9
2023-04-03T11:31:11.221Z,11.4
2023-04-03T11:32:28.245Z,11.9
2023-04-03T11:33:45.285Z,12.4
2023-04-03T11:35:02.184Z,12.9
2023-04-03T11:36:25.871Z,13.4
2023-04-03T11:37:36.193Z,14.1
2023-04-03T11:38:54.647Z,14.4
2023-04-03T11:40:10.269Z,13.6
2023-04-03T11:41:27.172Z,13.1
2023-04-03T11:42:44.200Z,13.4
2023-04-03T11:44:01.212Z,14
2023-04-03T11:45:18.281Z,14.5
2023-04-03T11:46:35.239Z,14.6
2023-04-03T11:47:52.300Z,14.1
2023-04-03T11:49:09.320Z,13.3
2023-04-03T11:50:26.204Z,12.6
2023-04-03T11:51:43.199Z,12.1
2023-04-03T11:53:00.315Z,12
2023-04-03T11:54:17.245Z,12.1
2023-04-03T11:55:34.211Z,12.3
2023-04-03T11:56:51.242Z,12.7
2023-04-03T11:58:08.245Z,13.3
2023-04-03T11:59:25.210Z,13.8
2023-04-03T12:00:42.220Z,14.4
2023-04-03T12:03:16.300Z,15.3
2023-04-03T12:04:33.361Z,15.8
2023-04-03T12:05:50.215Z,16
2023-04-03T12:07:07.231Z,16
2023-04-03T12:08:24.211Z,15.6
2023-04-03T12:09:41.286Z,15
2023-04-03T12:10:58.237Z,14.3
2023-04-03T12:12:15.238Z,14.1
2023-04-03T12:13:32.259Z,13.8
2023-04-03T12:14:49.235Z,13.8
2023-04-03T12:16:06.221Z,14.1
2023-04-03T12:17:23.221Z,14.3
2023-04-03T12:18:40.297Z,14.4
2023-04-03T12:19:57.346Z,14.4
2023-04-03T12:21:14.293Z,14.1
2023-04-03T12:22:31.232Z,13.3
2023-04-03T12:23:48.294Z,12.5
2023-04-03T12:25:05.295Z,11.9
2023-04-03T12:26:22.254Z,11.4
2023-04-03T12:27:39.457Z,11.2
2023-04-03T12:28:56.254Z,10.9
2023-04-03T12:30:13.294Z,10.6
2023-04-03T12:31:30.284Z,10.6
2023-04-03T12:32:47.328Z,10.8
2023-04-03T12:34:04.263Z,10.7
2023-04-03T12:35:21.451Z,10.1
2023-04-03T12:36:38.261Z,9.6
2023-04-03T12:37:55.272Z,9.1
2023-04-03T12:39:12.280Z,8.7
2023-04-03T12:40:29.294Z,8.7
2023-04-03T12:41:46.267Z,8.6
2023-04-03T12:43:04.276Z,8.8
2023-04-03T12:44:20.294Z,9.3
2023-04-03T12:45:37.479Z,9.6
2023-04-03T12:46:54.297Z,9.9
2023-04-03T12:48:11.333Z,10.4
2023-04-03T12:49:28.294Z,10.9
2023-04-03T12:50:45.416Z,11.2
2023-04-03T12:52:02.305Z,11.4
2023-04-03T12:53:19.280Z,11.1
2023-04-03T12:54:36.284Z,10.6
2023-04-03T12:55:53.317Z,10.4
2023-04-03T12:57:10.316Z,10.2
2023-04-03T12:58:27.333Z,10.2
2023-04-03T12:59:44.288Z,10.5
2023-04-03T13:01:01.326Z,10.8
2023-04-03T13:02:18.299Z,11.2
2023-04-03T13:03:35.380Z,11.6
2023-04-03T13:04:52.329Z,12
2023-04-03T13:06:09.479Z,12.4
2023-04-03T13:07:26.304Z,12.7
2023-04-03T13:08:43.330Z,13
2023-04-03T13:10:00.335Z,13.2
2023-04-03T13:11:17.331Z,13.5
2023-04-03T13:12:34.407Z,13.6
2023-04-03T13:13:51.370Z,13.5
2023-04-03T13:15:08.373Z,13.2
2023-04-03T13:16:25.347Z,12.9
2023-04-03T13:17:42.350Z,12.7
2023-04-03T13:18:59.337Z,12.5
2023-04-03T13:20:16.362Z,11.9
2023-04-03T13:21:33.454Z,11.6
2023-04-03T13:22:50.326Z,11.3
2023-04-03T13:24:15.105Z,11.2
2023-04-03T13:25:24.359Z,11.3
2023-04-03T13:26:41.648Z,11.7
2023-04-03T13:29:24.117Z,12.4
2023-04-03T13:30:32.969Z,12.8
2023-04-03T13:31:49.468Z,12.9
2023-04-03T13:33:06.393Z,12.9
2023-04-03T13:34:23.369Z,12.7
2023-04-03T13:35:40.428Z,12.6
2023-04-03T13:36:57.469Z,12.6
2023-04-03T13:38:14.336Z,12.7
2023-04-03T13:39:31.352Z,12.7
2023-04-03T13:42:29.338Z,12.3
2023-04-03T13:43:46.380Z,11.6
2023-04-03T13:45:03.395Z,11
2023-04-03T13:46:20.388Z,10.4
2023-04-03T13:47:37.403Z,10.1
2023-04-03T13:48:54.413Z,10
2023-04-03T13:50:11.383Z,9.7
2023-04-03T13:51:28.360Z,9.7
2023-04-03T13:52:45.445Z,9.9
2023-04-03T13:54:02.445Z,10.1
2023-04-03T13:55:25.184Z,10.5
2023-04-03T13:56:36.394Z,10.9
2023-04-03T13:57:53.427Z,11.3
2023-04-03T13:59:10.494Z,11.5
2023-04-03T14:00:27.406Z,11.5
2023-04-03T14:01:44.432Z,11.3
2023-04-03T14:03:01.450Z,11.4
2023-04-03T14:04:18.449Z,11.5
2023-04-03T14:05:35.533Z,11.7
2023-04-03T14:06:52.510Z,11.8
2023-04-03T14:08:10.417Z,11.6
2023-04-03T14:09:27.547Z,11.5
2023-04-03T14:10:44.410Z,11.3
2023-04-03T14:12:01.424Z,11.3
2023-04-03T14:13:18.467Z,11.2
2023-04-03T14:14:35.421Z,11.1
2023-04-03T14:15:53.867Z,11.1
2023-04-03T14:17:09.696Z,11.1
2023-04-03T14:18:26.401Z,11
2023-04-03T14:19:43.454Z,10.9
2023-04-03T14:21:00.428Z,10.7
2023-04-03T14:22:17.436Z,10.5
2023-04-03T14:23:34.421Z,10.5
2023-04-03T14:24:51.431Z,10.6
2023-04-03T14:26:08.480Z,11.1
2023-04-03T14:27:25.576Z,11.7
2023-04-03T14:28:43.958Z,12.5
2023-04-03T14:29:59.811Z,12.7
2023-04-03T14:32:48.745Z,12.4
2023-04-03T14:34:05.448Z,12.1
2023-04-03T14:35:22.475Z,11.7
2023-04-03T14:36:39.576Z,11.4
2023-04-03T14:37:56.446Z,11.1
2023-04-03T14:39:13.488Z,10.8
2023-04-03T14:40:30.470Z,10.5
2023-04-03T14:41:47.489Z,10.2
2023-04-03T14:43:04.511Z,10
2023-04-03T14:44:21.546Z,10.3
2023-04-03T14:45:38.529Z,10.5
2023-04-03T14:46:56.986Z,10.7
2023-04-03T14:48:12.482Z,11.2
2023-04-03T14:49:29.467Z,11.7
2023-04-03T14:50:54.812Z,12
2023-04-03T14:52:03.500Z,12.1
2023-04-03T14:53:23.587Z,12.1
2023-04-03T14:54:37.562Z,12.1
2023-04-03T14:55:54.502Z,12
2023-04-03T14:57:11.498Z,11.8
2023-04-03T14:58:28.476Z,11.4
2023-04-03T14:59:45.478Z,11
2023-04-03T15:01:02.763Z,10.5
2023-04-03T15:02:19.633Z,10.1
2023-04-03T15:03:36.653Z,10
2023-04-03T15:04:53.802Z,10.1
2023-04-03T15:06:10.489Z,10.1
2023-04-03T15:07:27.589Z,10.1
2023-04-03T15:08:44.550Z,10
2023-04-03T15:10:01.551Z,10
2023-04-03T15:11:18.540Z,10
2023-04-03T15:12:36.090Z,10
2023-04-03T15:13:53.526Z,10
2023-04-03T15:15:10.521Z,9.9
2023-04-03T15:16:27.826Z,9.5
2023-04-03T15:17:44.568Z,9.2
2023-04-03T15:19:01.536Z,9
2023-04-03T15:20:19.640Z,8.9
2023-04-03T15:21:36.512Z,8.9
2023-04-03T15:22:53.619Z,8.8
2023-04-03T15:24:10.517Z,8.7
2023-04-03T15:25:27.639Z,8.7
2023-04-03T15:26:44.542Z,8.6
2023-04-03T15:28:01.587Z,8.7
2023-04-03T15:29:18.533Z,8.8
2023-04-03T15:30:35.681Z,9
2023-04-03T15:31:52.584Z,9.2
2023-04-03T15:33:09.672Z,9.3
2023-04-03T15:34:26.523Z,9.5
2023-04-03T15:35:43.929Z,9.6
2023-04-03T15:37:00.546Z,9.6
2023-04-03T15:38:17.534Z,9.6
2023-04-03T15:39:34.536Z,9.6
2023-04-03T15:40:51.602Z,9.5
2023-04-03T15:42:11.829Z,9.5
2023-04-03T15:43:30.762Z,9.4
2023-04-03T15:44:51.236Z,9.3
2023-04-03T15:46:11.289Z,9.4
2023-04-03T15:47:31.199Z,9.5
2023-04-03T15:48:52.227Z,9.5
2023-04-03T15:50:11.137Z,9.4
2023-04-03T15:51:38.970Z,9.5
2023-04-03T15:53:00.976Z,9.6
2023-04-03T15:54:23.248Z,9.6
2023-04-03T15:55:41.928Z,9.7
2023-04-03T15:57:01.373Z,9.8
2023-04-03T15:58:20.217Z,9.8
2023-04-03T15:59:39.260Z,9.6
2023-04-03T16:00:59.074Z,9.4
2023-04-03T16:02:18.241Z,9.1
2023-04-03T16:03:36.367Z,9
2023-04-03T16:04:55.264Z,8.9
2023-04-03T16:06:14.112Z,8.8
2023-04-03T16:07:34.400Z,8.8
2023-04-03T16:08:54.162Z,8.8
2023-04-03T16:10:16.075Z,8.7
2023-04-03T16:11:33.981Z,8.7
2023-04-03T16:12:52.103Z,8.5
2023-04-03T16:14:14.378Z,8.4
2023-04-03T16:15:36.170Z,8.4
2023-04-03T16:16:56.474Z,8.3
2023-04-03T16:18:19.921Z,8.2
2023-04-03T16:19:41.800Z,8.2
2023-04-03T16:21:00.826Z,8.1
2023-04-03T16:22:19.058Z,7.9
2023-04-03T16:23:38.133Z,7.8
2023-04-03T16:24:57.225Z,7.8
2023-04-03T16:26:17.290Z,7.8
2023-04-03T16:27:36.260Z,8.1
2023-04-03T16:28:58.329Z,8.2
2023-04-03T16:30:16.223Z,8.1
2023-04-03T16:31:35.448Z,7.9
2023-04-03T16:32:55.237Z,7.9
2023-04-03T16:34:13.884Z,7.8
2023-04-03T16:35:34.544Z,7.9
2023-04-03T16:36:51.632Z,7.9
2023-04-03T16:38:08.608Z,7.9
2023-04-03T16:39:25.608Z,7.9
2023-04-03T16:40:42.649Z,7.8
2023-04-03T16:41:59.620Z,7.9
2023-04-03T16:43:16.656Z,7.9
2023-04-03T16:44:33.729Z,7.9
2023-04-03T16:45:50.622Z,7.8
2023-04-03T16:47:07.774Z,8.1
2023-04-03T16:48:24.635Z,8.2
2023-04-03T16:49:41.829Z,8.3
2023-04-03T16:50:58.665Z,8.3
2023-04-03T16:52:15.659Z,8.3
2023-04-03T16:53:32.642Z,8.3
2023-04-03T16:54:49.636Z,8.3
2023-04-03T16:56:06.665Z,8.1
2023-04-03T16:57:23.628Z,7.9
2023-04-03T16:58:40.671Z,7.9
2023-04-03T16:59:57.927Z,7.9
2023-04-03T17:01:14.672Z,7.9
2023-04-03T17:02:31.698Z,7.9
2023-04-03T17:03:48.669Z,8
2023-04-03T17:05:05.673Z,8.1
2023-04-03T17:06:22.681Z,8.1
2023-04-03T17:07:39.720Z,8.1
2023-04-03T17:08:56.676Z,8
2023-04-03T17:10:13.734Z,8.1
2023-04-03T17:11:30.766Z,8.2
2023-04-03T17:12:47.842Z,8.2
2023-04-03T17:14:04.702Z,8.1
2023-04-03T17:15:21.750Z,8
2023-04-03T17:16:38.692Z,8
2023-04-03T17:17:55.728Z,8.2
2023-04-03T17:19:12.695Z,8.3
2023-04-03T17:20:29.713Z,8.5
2023-04-03T17:21:46.673Z,8.6
2023-04-03T17:23:03.696Z,8.6
2023-04-03T17:24:20.677Z,8.6
2023-04-03T17:25:38.002Z,8.4
2023-04-03T17:26:54.693Z,8.3
2023-04-03T17:28:11.696Z,8.1
2023-04-03T17:29:28.691Z,7.8
2023-04-03T17:30:45.720Z,7.6
2023-04-03T17:32:02.771Z,7.6
2023-04-03T17:33:19.730Z,7.6
2023-04-03T17:34:36.730Z,7.4
2023-04-03T17:35:53.678Z,7.4
2023-04-03T17:37:10.729Z,7.3
2023-04-03T17:38:27.693Z,7.4
2023-04-03T17:39:44.716Z,7.5
2023-04-03T17:41:01.703Z,7.5